sensor_id;sensor_type;location;lat;lon;timestamp;P1;durP1;ratioP1;P2;durP2;ratioP2
43690;SDS011;29293;52.190;21.226;2024-03-17T00:09:40;12.50;;;2.60;;
43690;SDS011;29293;52.190;21.226;2024-03-17T00:24:48;10.00;;;2.90;;
43690;SDS011;29293;52.190;21.226;2024-03-17T00:39:54;10.20;;;2.50;;
43690;SDS011;29293;52.190;21.226;2024-03-17T00:55:01;16.10;;;2.80;;
43690;SDS011;29293;52.190;21.226;2024-03-17T01:10:09;14.00;;;2.00;;
43690;SDS011;29293;52.190;21.226;2024-03-17T01:25:15;8.00;;;2.10;;
43690;SDS011;29293;52.190;21.226;2024-03-17T01:40:22;11.50;;;2.20;;
43690;SDS011;29293;52.190;21.226;2024-03-17T01:55:28;11.30;;;2.40;;
43690;SDS011;29293;52.190;21.226;2024-03-17T02:10:35;11.90;;;2.70;;
43690;SDS011;29293;52.190;21.226;2024-03-17T02:25:41;17.40;;;3.00;;
43690;SDS011;29293;52.190;21.226;2024-03-17T02:40:50;12.70;;;2.30;;
43690;SDS011;29293;52.190;21.226;2024-03-17T02:55:56;11.50;;;2.40;;
43690;SDS011;29293;52.190;21.226;2024-03-17T03:11:03;9.70;;;2.30;;
43690;SDS011;29293;52.190;21.226;2024-03-17T03:26:10;13.40;;;2.50;;
43690;SDS011;29293;52.190;21.226;2024-03-17T03:41:17;12.70;;;2.50;;
43690;SDS011;29293;52.190;21.226;2024-03-17T03:56:23;15.80;;;2.70;;
43690;SDS011;29293;52.190;21.226;2024-03-17T04:11:30;17.60;;;3.60;;
43690;SDS011;29293;52.190;21.226;2024-03-17T04:26:39;12.30;;;2.80;;
43690;SDS011;29293;52.190;21.226;2024-03-17T04:41:47;16.90;;;3.90;;
43690;SDS011;29293;52.190;21.226;2024-03-17T04:56:53;17.30;;;4.00;;
43690;SDS011;29293;52.190;21.226;2024-03-17T05:11:59;20.60;;;4.70;;
43690;SDS011;29293;52.190;21.226;2024-03-17T05:27:05;21.10;;;4.50;;
43690;SDS011;29293;52.190;21.226;2024-03-17T05:42:12;15.10;;;4.10;;
43690;SDS011;29293;52.190;21.226;2024-03-17T05:57:18;16.60;;;4.40;;
43690;SDS011;29293;52.190;21.226;2024-03-17T06:12:25;14.90;;;3.90;;
43690;SDS011;29293;52.190;21.226;2024-03-17T06:27:31;18.90;;;4.40;;
43690;SDS011;29293;52.190;21.226;2024-03-17T06:42:38;11.80;;;4.20;;
43690;SDS011;29293;52.190;21.226;2024-03-17T06:57:45;12.60;;;3.90;;
43690;SDS011;29293;52.190;21.226;2024-03-17T07:12:51;18.10;;;3.40;;
43690;SDS011;29293;52.190;21.226;2024-03-17T07:27:57;13.80;;;3.00;;
43690;SDS011;29293;52.190;21.226;2024-03-17T07:43:04;9.50;;;3.30;;
43690;SDS011;29293;52.190;21.226;2024-03-17T07:58:10;17.20;;;3.30;;
43690;SDS011;29293;52.190;21.226;2024-03-17T08:13:17;12.20;;;3.00;;
43690;SDS011;29293;52.190;21.226;2024-03-17T08:28:24;11.90;;;2.90;;
43690;SDS011;29293;52.190;21.226;2024-03-17T08:43:32;11.80;;;3.30;;
43690;SDS011;29293;52.190;21.226;2024-03-17T08:58:39;9.20;;;3.20;;
43690;SDS011;29293;52.190;21.226;2024-03-17T09:13:45;11.50;;;3.20;;
43690;SDS011;29293;52.190;21.226;2024-03-17T09:28:51;10.00;;;3.00;;
43690;SDS011;29293;52.190;21.226;2024-03-17T09:43:57;7.70;;;3.20;;
43690;SDS011;29293;52.190;21.226;2024-03-17T09:59:04;6.80;;;2.00;;
43690;SDS011;29293;52.190;21.226;2024-03-17T10:14:10;8.40;;;2.40;;
43690;SDS011;29293;52.190;21.226;2024-03-17T10:29:21;9.30;;;2.60;;
43690;SDS011;29293;52.190;21.226;2024-03-17T10:44:29;8.30;;;2.30;;
43690;SDS011;29293;52.190;21.226;2024-03-17T10:59:38;6.10;;;2.30;;
43690;SDS011;29293;52.190;21.226;2024-03-17T11:14:45;7.40;;;3.00;;
43690;SDS011;29293;52.190;21.226;2024-03-17T11:29:51;5.90;;;2.70;;
43690;SDS011;29293;52.190;21.226;2024-03-17T11:45:02;4.80;;;2.30;;
43690;SDS011;29293;52.190;21.226;2024-03-17T12:00:22;4.00;;;1.70;;
43690;SDS011;29293;52.190;21.226;2024-03-17T12:15:29;5.70;;;2.50;;
43690;SDS011;29293;52.190;21.226;2024-03-17T12:30:35;3.50;;;2.00;;
43690;SDS011;29293;52.190;21.226;2024-03-17T12:45:41;4.00;;;2.10;;
43690;SDS011;29293;52.190;21.226;2024-03-17T13:00:57;3.80;;;1.90;;
43690;SDS011;29293;52.190;21.226;2024-03-17T13:16:05;3.20;;;1.60;;
43690;SDS011;29293;52.190;21.226;2024-03-17T13:31:12;7.80;;;2.30;;
43690;SDS011;29293;52.190;21.226;2024-03-17T13:46:19;3.70;;;1.70;;
43690;SDS011;29293;52.190;21.226;2024-03-17T14:01:26;3.60;;;2.50;;
43690;SDS011;29293;52.190;21.226;2024-03-17T14:31:41;9.20;;;3.00;;
43690;SDS011;29293;52.190;21.226;2024-03-17T14:46:55;4.70;;;3.20;;
43690;SDS011;29293;52.190;21.226;2024-03-17T15:02:03;5.70;;;3.50;;
43690;SDS011;29293;52.190;21.226;2024-03-17T15:17:10;4.70;;;2.90;;
43690;SDS011;29293;52.190;21.226;2024-03-17T15:32:16;4.10;;;2.10;;
43690;SDS011;29293;52.190;21.226;2024-03-17T15:47:23;5.30;;;3.20;;
43690;SDS011;29293;52.190;21.226;2024-03-17T16:02:29;5.20;;;3.10;;
43690;SDS011;29293;52.190;21.226;2024-03-17T16:17:38;6.80;;;3.80;;
43690;SDS011;29293;52.190;21.226;2024-03-17T16:32:50;5.70;;;4.10;;
43690;SDS011;29293;52.190;21.226;2024-03-17T16:47:57;5.70;;;3.40;;
43690;SDS011;29293;52.190;21.226;2024-03-17T17:03:04;7.00;;;3.80;;
43690;SDS011;29293;52.190;21.226;2024-03-17T17:18:46;7.40;;;5.00;;
43690;SDS011;29293;52.190;21.226;2024-03-17T17:33:58;7.50;;;3.90;;
43690;SDS011;29293;52.190;21.226;2024-03-17T17:49:29;11.10;;;4.30;;
43690;SDS011;29293;52.190;21.226;2024-03-17T18:04:46;8.20;;;4.60;;
43690;SDS011;29293;52.190;21.226;2024-03-17T18:20:02;8.80;;;4.00;;
43690;SDS011;29293;52.190;21.226;2024-03-17T18:35:09;6.20;;;3.70;;
43690;SDS011;29293;52.190;21.226;2024-03-17T18:50:18;6.10;;;3.40;;
43690;SDS011;29293;52.190;21.226;2024-03-17T19:05:28;8.00;;;4.50;;
43690;SDS011;29293;52.190;21.226;2024-03-17T19:20:37;9.90;;;4.70;;
43690;SDS011;29293;52.190;21.226;2024-03-17T19:35:51;10.10;;;4.20;;
43690;SDS011;29293;52.190;21.226;2024-03-17T19:51:04;6.60;;;3.10;;
43690;SDS011;29293;52.190;21.226;2024-03-17T20:06:16;6.80;;;3.00;;
43690;SDS011;29293;52.190;21.226;2024-03-17T20:21:25;5.70;;;3.40;;
43690;SDS011;29293;52.190;21.226;2024-03-17T20:36:33;14.70;;;5.10;;
43690;SDS011;29293;52.190;21.226;2024-03-17T20:51:43;8.60;;;4.50;;
43690;SDS011;29293;52.190;21.226;2024-03-17T21:06:50;7.90;;;3.90;;
43690;SDS011;29293;52.190;21.226;2024-03-17T21:21:56;5.80;;;3.10;;
43690;SDS011;29293;52.190;21.226;2024-03-17T21:37:02;5.90;;;2.60;;
43690;SDS011;29293;52.190;21.226;2024-03-17T21:52:09;6.80;;;3.20;;
43690;SDS011;29293;52.190;21.226;2024-03-17T22:07:15;6.70;;;3.30;;
43690;SDS011;29293;52.190;21.226;2024-03-17T22:22:21;8.60;;;3.50;;
43690;SDS011;29293;52.190;21.226;2024-03-17T22:37:28;7.90;;;3.40;;
43690;SDS011;29293;52.190;21.226;2024-03-17T22:52:34;8.80;;;3.80;;
43690;SDS011;29293;52.190;21.226;2024-03-17T23:07:40;11.90;;;4.60;;
43690;SDS011;29293;52.190;21.226;2024-03-17T23:22:47;9.60;;;3.10;;
43690;SDS011;29293;52.190;21.226;2024-03-17T23:37:54;7.90;;;3.10;;
43690;SDS011;29293;52.190;21.226;2024-03-17T23:53:03;8.10;;;3.80;;
